GMT,Max TemperatureF,Mean TemperatureF,Min TemperatureF,Max Dew PointF,MeanDew PointF,Min DewpointF,Max Humidity, Mean Humidity, Min Humidity, Max Sea Level PressureIn, Mean Sea Level PressureIn, Min Sea Level PressureIn, Max VisibilityMiles, Mean VisibilityMiles, Min VisibilityMiles, Max Wind SpeedMPH, Mean Wind SpeedMPH, Max Gust SpeedMPH,PrecipitationIn, CloudCover, Events, WindDirDegrees
2013-1-1,46,40,34,41,36,33,100,84,64,30.08,29.77,29.52,6,6,6,16,9,21,0.00,4,Rain,260
2013-1-2,50,44,38,50,45,37,100,97,92,30.36,30.23,30.11,6,6,6,20,9,22,0.00,8,,236
2013-1-3,50,49,48,50,49,46,100,96,93,30.62,30.50,30.35,6,6,6,20,15,26,0.00,8,,247
2013-1-4,50,46,41,48,46,41,100,95,87,30.66,30.63,30.59,6,6,6,16,11,,0.00,7,,256
2013-1-5,51,45,39,48,43,37,100,97,87,30.59,30.53,30.50,6,4,0,14,7,,0.00,3,Fog,227
2013-1-6,48,44,41,48,46,41,100,99,93,30.53,30.46,30.36,6,6,2,10,5,,0.00,8,Rain,230
2013-1-7,50,47,44,49,46,45,100,98,93,30.37,30.29,30.22,6,6,5,14,7,,0.00,8,Rain,208
2013-1-8,51,48,46,52,49,45,100,99,88,30.25,30.19,30.16,6,6,2,14,7,,0.04,8,Rain,232
2013-1-9,50,40,31,50,42,31,100,98,80,30.21,30.16,30.08,6,4,0,10,5,21,0.01,7,Fog-Rain,355
2013-1-10,41,36,31,41,35,31,100,99,93,30.08,29.99,29.92,6,4,0,8,2,,0.00,8,Fog-Snow,289
2013-1-11,46,40,33,43,40,32,100,96,81,30.10,30.03,29.94,6,4,1,8,3,,0.00,3,Rain-Snow,224
2013-1-12,39,37,35,39,36,31,100,94,71,29.99,29.85,29.80,6,6,4,18,12,30,0.13,8,Rain,86
2013-1-13,37,34,30,33,31,28,100,90,72,30.18,30.11,29.97,6,6,6,14,8,,0.00,5,,27
2013-1-14,41,36,31,41,33,31,100,98,87,30.11,29.91,29.68,6,5,2,16,5,30,0.22,7,Rain-Snow,222
2013-1-15,39,32,26,32,30,26,100,90,73,29.89,29.81,29.68,6,6,4,17,9,23,0.00,3,Snow,354
2013-1-16,28,26,24,28,27,25,100,98,93,30.04,29.93,29.81,6,3,0,9,5,,0.00,7,Fog,90
2013-1-17,35,30,26,33,29,27,100,98,82,30.07,29.99,29.82,6,5,0,12,4,,0.00,8,Fog,99
2013-1-18,33,30,28,33,30,28,100,99,93,29.82,29.57,29.42,6,4,0,18,12,23,0.01,8,Fog-Snow,102
2013-1-19,32,30,29,32,30,27,100,95,86,29.53,29.45,29.39,6,6,4,15,10,21,0.00,8,Rain,55
2013-1-20,32,30,28,30,29,25,100,96,85,29.51,29.39,29.29,6,5,2,15,8,,0.03,8,,28
2013-1-21,32,24,17,32,29,18,100,99,93,29.48,29.32,29.25,6,4,0,10,3,,0.02,7,Fog-Snow,235
2013-1-22,34,30,26,34,31,26,100,99,88,29.70,29.60,29.47,6,5,2,16,11,24,0.12,8,Snow,65
2013-1-23,33,32,30,33,32,31,100,100,95,29.83,29.72,29.67,6,4,1,17,13,23,0.02,8,Snow,64
2013-1-24,33,30,27,32,31,28,100,97,90,30.15,29.97,29.82,6,6,6,12,9,,0.01,8,,65
2013-1-25,37,32,26,37,32,25,100,91,80,30.11,29.77,29.47,6,6,6,18,10,25,0.19,6,Rain,149
2013-1-26,46,39,32,46,41,32,100,96,87,29.83,29.61,29.46,6,6,4,23,10,33,0.23,7,Rain,224
2013-1-27,51,44,36,51,42,36,100,92,71,29.61,29.41,29.22,6,6,2,34,19,47,0.51,4,Rain,232
2013-1-28,51,42,34,49,45,34,100,95,83,29.78,29.55,29.45,6,6,4,36,19,50,0.08,5,Rain,217
2013-1-29,57,52,46,56,52,46,100,98,84,29.63,29.55,29.47,6,6,5,28,17,36,0.08,8,Rain,228
2013-1-30,51,47,43,52,46,40,100,94,78,30.02,29.63,29.49,6,6,2,32,17,44,0.35,6,Rain,251
2013-1-31,50,46,41,46,44,39,100,93,70,29.98,29.83,29.75,6,6,2,34,20,43,0.21,6,Rain,251